createdAt,value
2018-10-09T00:00:17.693Z,20.93
2018-10-09T00:02:45.982Z,18.33
2018-10-09T00:05:14.869Z,20.87
2018-10-09T00:07:43.163Z,18.67
2018-10-09T00:10:11.439Z,17.27
2018-10-09T00:12:39.731Z,19.70
2018-10-09T00:15:08.199Z,18.40
2018-10-09T00:17:36.535Z,18.80
2018-10-09T00:20:05.186Z,19.93
2018-10-09T00:22:33.521Z,22.67
2018-10-09T00:25:01.799Z,16.67
2018-10-09T00:27:30.071Z,19.03
2018-10-09T00:29:58.367Z,17.27
2018-10-09T00:32:26.633Z,17.70
2018-10-09T00:34:54.937Z,17.47
2018-10-09T00:37:23.211Z,20.93
2018-10-09T00:39:51.585Z,18.97
2018-10-09T00:42:19.872Z,18.07
2018-10-09T00:44:54.471Z,21.80
2018-10-09T00:47:22.778Z,24.60
2018-10-09T00:49:51.039Z,23.30
2018-10-09T00:52:19.875Z,28.57
2018-10-09T00:54:48.235Z,27.90
2018-10-09T00:57:16.515Z,23.77
2018-10-09T00:59:44.780Z,24.87
2018-10-09T01:02:13.056Z,23.97
2018-10-09T01:04:41.347Z,27.67
2018-10-09T01:07:09.636Z,20.60
2018-10-09T01:09:37.923Z,29.07
2018-10-09T01:12:06.194Z,24.67
2018-10-09T01:14:34.471Z,29.90
2018-10-09T01:17:02.929Z,31.80
2018-10-09T01:19:31.207Z,24.43
2018-10-09T01:21:59.504Z,21.93
2018-10-09T01:24:27.780Z,19.20
2018-10-09T01:26:56.088Z,22.47
2018-10-09T01:29:24.353Z,25.43
2018-10-09T01:31:52.727Z,25.00
2018-10-09T01:34:21.030Z,27.20
2018-10-09T01:36:49.284Z,22.97
2018-10-09T01:39:17.580Z,25.43
2018-10-09T01:41:45.840Z,33.43
2018-10-09T01:44:14.128Z,29.90
2018-10-09T01:46:42.402Z,29.47
2018-10-09T01:49:10.660Z,32.00
2018-10-09T01:51:38.939Z,27.00
2018-10-09T01:54:07.348Z,23.97
2018-10-09T01:56:36.064Z,24.07
2018-10-09T01:59:04.385Z,31.63
2018-10-09T02:01:32.834Z,32.47
2018-10-09T02:04:01.172Z,37.57
2018-10-09T02:06:29.436Z,40.23
2018-10-09T02:08:57.704Z,35.57
2018-10-09T02:11:25.970Z,37.50
2018-10-09T02:13:54.229Z,37.23
2018-10-09T02:16:22.504Z,38.60
2018-10-09T02:18:50.754Z,32.73
2018-10-09T02:21:19.023Z,35.17
2018-10-09T02:23:47.272Z,37.63
2018-10-09T02:26:15.862Z,33.90
2018-10-09T02:28:44.124Z,36.80
2018-10-09T02:31:12.393Z,33.40
2018-10-09T02:33:40.816Z,37.03
2018-10-09T02:36:09.016Z,34.97
2018-10-09T02:38:37.283Z,31.00
2018-10-09T02:41:05.584Z,30.33
2018-10-09T02:43:33.855Z,29.83
2018-10-09T02:46:02.124Z,27.80
2018-10-09T02:48:30.401Z,32.97
2018-10-09T02:50:58.661Z,28.37
2018-10-09T02:53:26.912Z,30.63
2018-10-09T02:55:55.217Z,31.33
2018-10-09T02:58:23.465Z,31.63
2018-10-09T03:00:51.744Z,33.00
2018-10-09T03:03:20.006Z,38.40
2018-10-09T03:05:48.288Z,29.20
2018-10-09T03:08:16.558Z,33.83
2018-10-09T03:10:44.844Z,29.83
2018-10-09T03:13:13.156Z,30.17
2018-10-09T03:15:41.431Z,37.83
2018-10-09T03:18:09.712Z,27.83
2018-10-09T03:20:37.967Z,25.87
2018-10-09T03:23:06.274Z,27.07
2018-10-09T03:25:34.532Z,31.03
2018-10-09T03:28:02.832Z,26.60
2018-10-09T03:30:31.086Z,35.10
2018-10-09T03:32:59.384Z,33.50
2018-10-09T03:35:27.662Z,28.37
2018-10-09T03:37:55.920Z,33.30
2018-10-09T03:40:24.201Z,37.23
2018-10-09T03:42:52.472Z,34.47
2018-10-09T03:45:20.760Z,42.13
2018-10-09T03:47:49.040Z,38.07
2018-10-09T03:50:17.331Z,39.60
2018-10-09T03:52:45.598Z,34.33
2018-10-09T03:55:13.871Z,35.43
2018-10-09T03:57:42.145Z,33.43
2018-10-09T04:00:10.440Z,34.30
2018-10-09T04:02:38.744Z,34.07
2018-10-09T04:05:07.055Z,32.53
2018-10-09T04:07:35.335Z,54.00
2018-10-09T04:10:03.624Z,33.13
2018-10-09T04:12:32.506Z,29.30
2018-10-09T04:15:00.757Z,40.50
2018-10-09T04:17:29.033Z,32.70
2018-10-09T04:19:57.316Z,33.10
2018-10-09T04:22:25.582Z,33.07
2018-10-09T04:24:53.855Z,30.60
2018-10-09T04:27:22.124Z,35.47
2018-10-09T04:29:50.385Z,34.67
2018-10-09T04:32:18.640Z,33.17
2018-10-09T04:34:46.928Z,33.47
2018-10-09T04:37:15.220Z,33.87
2018-10-09T04:39:43.529Z,31.67
2018-10-09T04:42:11.798Z,31.43
2018-10-09T04:44:40.046Z,31.67
2018-10-09T04:47:08.324Z,37.83
2018-10-09T04:49:36.598Z,32.13
2018-10-09T04:52:04.850Z,30.30
2018-10-09T04:54:33.135Z,31.13
2018-10-09T04:57:01.400Z,36.50
2018-10-09T04:59:29.656Z,30.93
2018-10-09T05:01:57.934Z,37.90
2018-10-09T05:04:26.176Z,33.30
2018-10-09T05:06:54.464Z,36.93
2018-10-09T05:09:22.756Z,34.17
2018-10-09T05:11:51.036Z,39.13
2018-10-09T05:14:19.288Z,36.50
2018-10-09T05:16:47.556Z,33.73
2018-10-09T05:19:15.820Z,34.10
2018-10-09T05:21:44.070Z,31.37
2018-10-09T05:24:12.395Z,28.53
2018-10-09T05:26:40.662Z,31.00
2018-10-09T05:29:08.939Z,34.03
2018-10-09T05:31:37.235Z,30.97
2018-10-09T05:34:05.496Z,30.20
2018-10-09T05:36:33.780Z,33.17
2018-10-09T05:39:02.121Z,31.07
2018-10-09T05:41:30.368Z,34.03
2018-10-09T05:43:58.656Z,39.67
2018-10-09T05:46:26.944Z,43.50
2018-10-09T05:48:55.213Z,42.77
2018-10-09T05:51:23.487Z,50.00
2018-10-09T05:53:52.219Z,37.40
2018-10-09T05:56:20.493Z,40.70
2018-10-09T05:58:48.752Z,44.43
2018-10-09T06:01:17.053Z,41.83
2018-10-09T06:03:45.323Z,46.53
2018-10-09T06:06:13.657Z,44.07
2018-10-09T06:08:41.937Z,37.70
2018-10-09T06:11:10.248Z,38.27
2018-10-09T06:13:38.561Z,43.90
2018-10-09T06:16:07.085Z,37.00
2018-10-09T06:18:35.271Z,37.37
2018-10-09T06:21:03.637Z,44.67
2018-10-09T06:23:31.953Z,43.37
2018-10-09T06:26:00.233Z,50.47
2018-10-09T06:28:28.597Z,55.43
2018-10-09T06:30:56.847Z,47.27
2018-10-09T06:33:25.125Z,47.07
2018-10-09T06:35:53.438Z,48.27
2018-10-09T06:38:21.707Z,51.23
2018-10-09T06:40:49.989Z,50.20
2018-10-09T06:43:18.754Z,57.23
2018-10-09T06:45:47.067Z,60.60
2018-10-09T06:48:15.395Z,56.70
2018-10-09T06:50:43.689Z,59.00
2018-10-09T06:53:11.966Z,54.10
2018-10-09T06:55:40.824Z,60.57
2018-10-09T06:58:09.090Z,56.20
2018-10-09T07:00:37.367Z,48.67
2018-10-09T07:03:05.741Z,52.00
2018-10-09T07:05:34.074Z,55.30
2018-10-09T07:08:02.384Z,54.40
2018-10-09T07:10:30.665Z,55.43
2018-10-09T07:12:58.958Z,53.23
2018-10-09T07:15:27.219Z,60.90
2018-10-09T07:17:55.533Z,62.03
2018-10-09T07:20:23.915Z,57.30
2018-10-09T07:22:52.185Z,68.47
2018-10-09T07:25:20.466Z,73.97
2018-10-09T07:27:48.759Z,84.23
2018-10-09T07:30:17.026Z,80.80
2018-10-09T07:32:45.332Z,77.87
2018-10-09T07:35:13.592Z,91.80
2018-10-09T07:37:41.914Z,89.20
2018-10-09T07:40:10.150Z,86.57
2018-10-09T07:42:38.460Z,87.57
2018-10-09T07:45:06.844Z,83.23
2018-10-09T07:47:35.123Z,84.57
2018-10-09T07:50:03.428Z,77.90
2018-10-09T07:52:31.696Z,79.20
2018-10-09T07:55:01.200Z,73.93
2018-10-09T07:57:29.449Z,85.07
2018-10-09T07:59:57.740Z,75.57
2018-10-09T08:02:26.030Z,74.60
2018-10-09T08:04:54.391Z,69.13
2018-10-09T08:07:22.603Z,68.23
2018-10-09T08:09:50.922Z,59.07
2018-10-09T08:12:19.240Z,59.67
2018-10-09T08:14:47.514Z,60.73
2018-10-09T08:17:15.764Z,60.40
2018-10-09T08:19:44.033Z,57.10
2018-10-09T08:22:12.329Z,57.77
2018-10-09T08:24:40.599Z,52.90
2018-10-09T08:27:08.857Z,55.97
2018-10-09T08:29:37.205Z,52.47
2018-10-09T08:32:05.527Z,57.80
2018-10-09T08:34:33.813Z,47.83
2018-10-09T08:37:02.070Z,50.20
2018-10-09T08:39:30.354Z,52.43
2018-10-09T08:41:58.658Z,50.27
2018-10-09T08:44:26.942Z,51.27
2018-10-09T08:46:55.536Z,44.57
2018-10-09T08:49:23.824Z,46.53
2018-10-09T08:51:52.227Z,46.90
2018-10-09T08:54:21.506Z,42.97
2018-10-09T08:56:49.779Z,43.10
2018-10-09T08:59:18.056Z,44.13
2018-10-09T09:01:46.358Z,44.07
2018-10-09T09:04:14.672Z,43.27
2018-10-09T09:06:42.980Z,42.37
2018-10-09T09:09:12.764Z,38.03
2018-10-09T09:11:41.028Z,42.33
2018-10-09T09:14:10.442Z,38.90
2018-10-09T09:16:38.652Z,38.90
2018-10-09T09:19:06.933Z,38.07
2018-10-09T09:21:35.237Z,39.90
2018-10-09T09:24:03.525Z,40.03
2018-10-09T09:26:31.835Z,41.80
2018-10-09T09:29:00.087Z,41.80
2018-10-09T09:31:28.702Z,40.87
2018-10-09T09:33:57.025Z,41.67
2018-10-09T09:36:25.381Z,42.10
2018-10-09T09:38:53.750Z,81.00
2018-10-09T09:41:22.014Z,77.23
2018-10-09T09:43:50.380Z,43.33
2018-10-09T09:46:19.008Z,37.30
2018-10-09T09:48:47.375Z,42.13
2018-10-09T09:51:15.663Z,36.67
2018-10-09T09:53:43.964Z,39.13
2018-10-09T09:56:12.242Z,40.00
2018-10-09T09:58:40.733Z,41.13
2018-10-09T10:01:10.130Z,41.80
2018-10-09T10:03:39.603Z,39.50
2018-10-09T10:06:08.385Z,39.30
2018-10-09T10:08:36.787Z,37.00
2018-10-09T10:11:05.069Z,39.30
2018-10-09T10:13:33.367Z,38.30
2018-10-09T10:16:01.741Z,33.27
2018-10-09T10:18:30.491Z,38.27
2018-10-09T10:20:58.797Z,35.33
2018-10-09T10:23:27.092Z,34.47
2018-10-09T10:25:55.497Z,32.70
2018-10-09T10:28:23.769Z,37.13
2018-10-09T10:30:52.089Z,39.73
2018-10-09T10:33:20.520Z,37.50
2018-10-09T10:35:48.953Z,29.23
2018-10-09T10:38:17.669Z,36.50
2018-10-09T10:40:45.997Z,36.43
2018-10-09T10:43:14.325Z,33.87
2018-10-09T10:45:42.641Z,38.80
2018-10-09T10:48:10.961Z,33.57
2018-10-09T10:50:39.251Z,37.47
2018-10-09T10:53:07.573Z,33.30
2018-10-09T10:55:35.867Z,35.10
2018-10-09T10:58:04.410Z,34.40
2018-10-09T11:00:32.715Z,34.43
2018-10-09T11:03:01.006Z,35.47
2018-10-09T11:05:29.549Z,34.30
2018-10-09T11:07:57.860Z,36.13
2018-10-09T11:10:26.111Z,31.40
2018-10-09T11:12:55.091Z,35.33
2018-10-09T11:15:23.392Z,36.67
2018-10-09T11:17:52.627Z,30.93
2018-10-09T11:20:20.935Z,32.23
2018-10-09T11:22:49.447Z,32.87
2018-10-09T11:25:17.988Z,29.60
2018-10-09T11:27:46.355Z,33.30
2018-10-09T11:30:14.715Z,28.83
2018-10-09T11:32:43.737Z,31.13
2018-10-09T11:35:12.029Z,29.17
2018-10-09T11:37:40.475Z,26.57
2018-10-09T11:40:08.910Z,24.77
2018-10-09T11:42:37.241Z,25.70
2018-10-09T11:45:05.605Z,27.60
2018-10-09T11:47:33.885Z,25.77
2018-10-09T11:50:02.176Z,27.87
2018-10-09T11:52:30.529Z,22.93
2018-10-09T11:54:58.832Z,29.53
2018-10-09T11:57:27.120Z,26.97
2018-10-09T11:59:55.475Z,27.43
2018-10-09T12:02:23.755Z,24.30
2018-10-09T12:04:52.040Z,21.90
2018-10-09T12:07:20.349Z,23.50
2018-10-09T12:09:48.617Z,21.10
2018-10-09T12:12:16.922Z,26.20
2018-10-09T12:14:45.192Z,21.87
2018-10-09T12:17:13.470Z,24.07
2018-10-09T12:19:41.753Z,19.60
2018-10-09T12:22:10.099Z,17.90
2018-10-09T12:24:38.403Z,16.90
2018-10-09T12:27:06.692Z,17.23
2018-10-09T12:29:34.977Z,17.10
2018-10-09T12:32:03.349Z,18.83
2018-10-09T12:34:31.733Z,15.93
2018-10-09T12:37:01.004Z,19.33
2018-10-09T12:39:29.273Z,17.90
2018-10-09T12:41:57.563Z,18.50
2018-10-09T12:44:25.988Z,16.43
2018-10-09T12:46:54.263Z,16.50
2018-10-09T12:49:22.531Z,17.90
2018-10-09T12:51:50.834Z,17.57
2018-10-09T12:54:19.125Z,19.10
2018-10-09T12:56:47.384Z,20.03
2018-10-09T12:59:15.689Z,17.87
2018-10-09T13:01:44.090Z,23.43
2018-10-09T13:04:12.371Z,20.70
2018-10-09T13:06:40.665Z,19.13
2018-10-09T13:09:10.575Z,23.17
2018-10-09T13:11:39.353Z,17.27
2018-10-09T13:14:07.669Z,18.17
2018-10-09T13:16:36.013Z,17.57
2018-10-09T13:19:04.346Z,45.60
2018-10-09T13:21:32.882Z,21.67
2018-10-09T13:24:00.970Z,29.70
2018-10-09T13:26:29.259Z,18.83
2018-10-09T13:28:57.576Z,17.73
2018-10-09T13:31:25.913Z,19.87
2018-10-09T13:33:54.262Z,16.17
2018-10-09T13:36:22.526Z,18.77
2018-10-09T13:38:50.825Z,16.70
2018-10-09T13:41:19.153Z,25.30
2018-10-09T13:43:48.147Z,17.53
2018-10-09T13:46:16.440Z,17.20
2018-10-09T13:48:45.725Z,16.00
2018-10-09T13:51:14.024Z,15.10
2018-10-09T13:53:42.443Z,15.10
2018-10-09T13:56:10.853Z,57.43
2018-10-09T13:58:39.168Z,35.87
2018-10-09T14:01:07.565Z,32.37
2018-10-09T14:03:35.874Z,20.80
2018-10-09T14:06:04.261Z,16.47
2018-10-09T14:08:32.549Z,15.13
2018-10-09T14:11:00.973Z,14.50
2018-10-09T14:13:29.302Z,14.60
2018-10-09T14:15:57.632Z,16.50
2018-10-09T14:18:26.785Z,13.87
2018-10-09T14:20:55.255Z,18.87
2018-10-09T14:23:23.600Z,14.50
2018-10-09T14:25:51.963Z,13.83
2018-10-09T14:28:20.296Z,12.53
2018-10-09T14:30:48.632Z,20.17
2018-10-09T14:33:17.958Z,21.10
2018-10-09T14:35:46.269Z,14.10
2018-10-09T14:38:15.547Z,13.90
2018-10-09T14:40:43.859Z,64.63
2018-10-09T14:43:12.238Z,13.53
2018-10-09T14:45:40.608Z,16.70
2018-10-09T14:48:08.964Z,13.90
2018-10-09T14:50:37.397Z,14.10
2018-10-09T14:53:05.705Z,44.83
2018-10-09T14:55:34.475Z,18.73
2018-10-09T14:58:02.802Z,25.40
2018-10-09T15:00:31.197Z,16.13
2018-10-09T15:02:59.479Z,33.63
2018-10-09T15:05:27.828Z,17.43
2018-10-09T15:07:56.142Z,13.53
2018-10-09T15:10:24.683Z,28.57
2018-10-09T15:12:52.992Z,60.73
2018-10-09T15:15:21.332Z,42.77
2018-10-09T15:17:49.626Z,38.53
2018-10-09T15:20:18.024Z,23.53
2018-10-09T15:22:46.477Z,13.43
2018-10-09T15:25:14.777Z,13.70
2018-10-09T15:27:43.173Z,13.37
2018-10-09T15:30:11.472Z,15.10
2018-10-09T15:32:39.770Z,14.07
2018-10-09T15:35:08.062Z,13.93
2018-10-09T15:37:36.363Z,17.07
2018-10-09T15:40:04.943Z,23.93
2018-10-09T15:42:33.229Z,20.50
2018-10-09T15:45:01.504Z,17.70
2018-10-09T15:47:29.814Z,15.77
2018-10-09T15:49:58.122Z,14.17
2018-10-09T15:52:26.431Z,15.43
2018-10-09T15:54:54.710Z,16.33
2018-10-09T15:57:23.082Z,15.27
2018-10-09T15:59:51.420Z,15.10
2018-10-09T16:02:19.741Z,15.40
2018-10-09T16:04:48.029Z,15.87
2018-10-09T16:07:16.378Z,15.47
2018-10-09T16:09:44.692Z,15.83
2018-10-09T16:12:13.067Z,15.30
2018-10-09T16:14:41.364Z,15.73
2018-10-09T16:17:09.648Z,16.20
2018-10-09T16:19:37.947Z,15.67
2018-10-09T16:22:06.553Z,16.00
2018-10-09T16:24:34.844Z,16.50
2018-10-09T16:27:03.198Z,15.77
2018-10-09T16:29:31.474Z,16.67
2018-10-09T16:31:59.817Z,17.67
2018-10-09T16:34:28.120Z,18.07
2018-10-09T16:36:56.461Z,18.07
2018-10-09T16:39:24.885Z,19.70
2018-10-09T16:41:53.181Z,19.57
2018-10-09T16:44:21.471Z,18.77
2018-10-09T16:46:49.722Z,19.23
2018-10-09T16:49:18.037Z,20.43
2018-10-09T16:51:46.341Z,21.53
2018-10-09T16:54:14.667Z,21.60
2018-10-09T16:56:43.018Z,20.13
2018-10-09T16:59:12.262Z,24.53
2018-10-09T17:01:40.573Z,21.20
2018-10-09T17:04:08.862Z,21.37
2018-10-09T17:06:37.611Z,20.13
2018-10-09T17:09:08.168Z,19.40
2018-10-09T17:11:36.520Z,19.97
2018-10-09T17:14:06.220Z,21.70
2018-10-09T17:16:34.526Z,21.33
2018-10-09T17:19:02.860Z,22.20
2018-10-09T17:21:31.176Z,22.47
2018-10-09T17:23:59.518Z,21.77
2018-10-09T17:26:27.849Z,22.13
2018-10-09T17:28:56.998Z,25.93
2018-10-09T17:31:27.715Z,28.17
2018-10-09T17:33:56.109Z,31.20
2018-10-09T17:36:24.657Z,23.23
2018-10-09T17:38:52.957Z,24.20
2018-10-09T17:41:21.299Z,25.37
2018-10-09T17:43:49.601Z,25.17
2018-10-09T17:46:17.990Z,25.80
2018-10-09T17:48:46.398Z,24.60
2018-10-09T17:51:14.653Z,24.73
2018-10-09T17:53:43.092Z,26.87
2018-10-09T17:56:11.399Z,31.07
2018-10-09T17:58:39.756Z,32.90
2018-10-09T18:01:08.326Z,32.57
2018-10-09T18:03:36.628Z,32.97
2018-10-09T18:06:05.082Z,32.40
2018-10-09T18:08:33.408Z,34.83
2018-10-09T18:11:01.770Z,36.40
2018-10-09T18:13:30.086Z,34.50
2018-10-09T18:15:58.446Z,36.83
2018-10-09T18:18:26.757Z,36.23
2018-10-09T18:20:55.390Z,34.63
2018-10-09T18:23:23.779Z,39.67
2018-10-09T18:25:52.263Z,38.77
2018-10-09T18:28:20.912Z,42.60
2018-10-09T18:30:49.313Z,39.87
2018-10-09T18:33:17.887Z,38.30
2018-10-09T18:35:46.450Z,41.93
2018-10-09T18:38:14.928Z,38.47
2018-10-09T18:40:44.727Z,43.13
2018-10-09T18:43:13.492Z,45.10
2018-10-09T18:45:42.610Z,44.83
2018-10-09T18:48:11.054Z,46.93
2018-10-09T18:50:39.772Z,41.97
2018-10-09T18:53:08.263Z,44.00
2018-10-09T18:55:36.726Z,39.57
2018-10-09T18:58:05.799Z,41.13
2018-10-09T19:00:34.815Z,40.27
2018-10-09T19:03:04.159Z,44.43
2018-10-09T19:05:32.991Z,44.03
2018-10-09T19:08:02.423Z,64.43
2018-10-09T19:10:31.028Z,68.60
2018-10-09T19:13:00.086Z,60.90
2018-10-09T19:15:28.482Z,55.10
2018-10-09T19:17:57.920Z,40.57
2018-10-09T19:20:26.527Z,44.97
2018-10-09T19:22:55.717Z,48.17
2018-10-09T19:25:24.176Z,45.13
2018-10-09T19:27:53.437Z,47.73
2018-10-09T19:30:23.019Z,45.13
2018-10-09T19:32:52.580Z,42.73
2018-10-09T19:35:21.559Z,47.13
2018-10-09T19:37:50.346Z,41.33
2018-10-09T19:40:19.186Z,44.10
2018-10-09T19:42:48.870Z,44.83
2018-10-09T19:45:17.772Z,41.30
2018-10-09T19:47:46.250Z,50.23
2018-10-09T19:50:14.731Z,51.40
2018-10-09T19:52:43.146Z,49.10
2018-10-09T19:55:12.024Z,50.77
2018-10-09T19:57:40.431Z,48.87
2018-10-09T20:00:08.857Z,52.63
2018-10-09T20:02:37.274Z,54.40
2018-10-09T20:05:05.799Z,52.03
2018-10-09T20:07:34.336Z,53.60
2018-10-09T20:10:03.362Z,58.03
2018-10-09T20:12:32.189Z,57.23
2018-10-09T20:15:00.583Z,55.37
2018-10-09T20:17:29.083Z,55.03
2018-10-09T20:19:57.544Z,46.37
2018-10-09T20:22:25.982Z,46.90
2018-10-09T20:24:54.555Z,49.70
2018-10-09T20:27:23.193Z,49.03
2018-10-09T20:29:51.692Z,52.80
2018-10-09T20:32:20.889Z,56.97
2018-10-09T20:34:49.485Z,68.27
2018-10-09T20:37:17.914Z,65.33
2018-10-09T20:39:47.369Z,63.53
2018-10-09T20:42:15.787Z,57.83
2018-10-09T20:44:44.176Z,59.00
2018-10-09T20:47:12.571Z,58.73
2018-10-09T20:49:40.977Z,61.77
2018-10-09T20:52:09.445Z,61.33
2018-10-09T20:54:37.764Z,63.40
2018-10-09T20:57:06.112Z,61.00
2018-10-09T20:59:34.491Z,65.07
2018-10-09T21:02:03.477Z,66.87
2018-10-09T21:04:31.888Z,77.50
2018-10-09T21:07:00.309Z,71.13
2018-10-09T21:09:28.677Z,67.37
2018-10-09T21:11:57.200Z,76.23
2018-10-09T21:14:25.561Z,73.03
2018-10-09T21:16:54.178Z,71.83
2018-10-09T21:19:22.590Z,71.70
2018-10-09T21:21:50.910Z,74.10
2018-10-09T21:24:19.222Z,71.80
2018-10-09T21:26:48.067Z,73.97
2018-10-09T21:29:16.388Z,71.90
2018-10-09T21:31:44.937Z,71.73
2018-10-09T21:34:13.468Z,71.43
2018-10-09T21:36:43.094Z,69.23
2018-10-09T21:39:11.775Z,78.90
2018-10-09T21:41:40.213Z,77.33
2018-10-09T21:44:08.704Z,73.23
2018-10-09T21:46:37.349Z,74.33
2018-10-09T21:49:06.000Z,79.67
2018-10-09T21:51:34.345Z,71.37
2018-10-09T21:54:02.896Z,74.47
2018-10-09T21:56:31.964Z,81.47
2018-10-09T21:59:00.499Z,77.33
2018-10-09T22:01:28.785Z,75.57
2018-10-09T22:03:57.069Z,73.50
2018-10-09T22:06:25.337Z,71.17
2018-10-09T22:08:53.873Z,76.13
2018-10-09T22:11:22.161Z,67.33
2018-10-09T22:13:50.489Z,71.20
2018-10-09T22:16:18.785Z,71.17
2018-10-09T22:18:47.089Z,66.13
2018-10-09T22:21:15.375Z,64.90
2018-10-09T22:23:43.667Z,62.23
2018-10-09T22:26:12.017Z,64.03
2018-10-09T22:28:40.289Z,63.40
2018-10-09T22:31:08.619Z,62.27
2018-10-09T22:33:36.905Z,64.00
2018-10-09T22:36:05.198Z,62.27
2018-10-09T22:38:33.535Z,59.53
2018-10-09T22:41:01.775Z,64.40
2018-10-09T22:43:30.035Z,65.43
2018-10-09T22:45:58.321Z,65.00
2018-10-09T22:48:26.636Z,63.17
2018-10-09T22:50:54.912Z,66.73
2018-10-09T22:53:23.203Z,64.30
2018-10-09T22:55:51.465Z,72.43
2018-10-09T22:58:19.745Z,66.43
2018-10-09T23:00:48.041Z,66.33
2018-10-09T23:03:16.365Z,63.27
2018-10-09T23:05:44.734Z,64.40
2018-10-09T23:08:13.018Z,62.20
2018-10-09T23:10:41.278Z,67.97
2018-10-09T23:13:09.545Z,61.37
2018-10-09T23:15:37.819Z,63.93
2018-10-09T23:18:06.111Z,62.83
2018-10-09T23:20:35.696Z,61.67
2018-10-09T23:23:03.955Z,65.67
2018-10-09T23:25:32.315Z,64.07
2018-10-09T23:28:00.599Z,66.53
2018-10-09T23:30:28.884Z,65.10
2018-10-09T23:32:57.173Z,74.63
2018-10-09T23:35:25.437Z,70.63
2018-10-09T23:37:53.821Z,68.93
2018-10-09T23:40:22.154Z,70.87
2018-10-09T23:42:50.498Z,64.97
2018-10-09T23:45:18.703Z,68.57
2018-10-09T23:47:46.981Z,76.63
2018-10-09T23:50:15.267Z,71.67
2018-10-09T23:52:43.557Z,71.63
2018-10-09T23:55:11.837Z,78.77
2018-10-09T23:57:40.254Z,83.77
